This is the latest recevied weather packets stored in our database for station/object KI4LFI. If no packets are shown the sender has not sent any weather packets the latest 10 day(s).
| Time | Temp. | Humidity | Pressure | Rain* | Wind** | Luminosity | Snow |
|---|---|---|---|---|---|---|---|
| 1778188550 | 26.67° C | 91% | 1012.3 hPa | 0 mm | - | - | - |
| 1778184039 | 25° C | 97% | 1012.4 hPa | 0 mm | - | - | - |
| 1778167842 | 21.11° C | 100% | 1013.7 hPa | 0.25 mm | - | - | - |
| 1778162453 | 21.11° C | 100% | 1012.9 hPa | 4.32 mm | - | - | - |
| 1778160644 | 21.11° C | 100% | 1012.7 hPa | 3.56 mm | - | - | - |
| 1778152541 | 23.33° C | 97% | 1012.5 hPa | 0 mm | - | - | - |
| 1778139053 | 23.33° C | 96% | 1012 hPa | 0 mm | - | - | - |
| 1778138136 | 23.33° C | 95% | 1012.1 hPa | 0 mm | - | - | - |
| 1778134537 | 23.33° C | 94% | 1012.2 hPa | 0 mm | - | - | - |
| 1778131843 | 23.33° C | 94% | 1012.9 hPa | 0 mm | - | - | - |
| 1778130045 | 23.33° C | 94% | 1013 hPa | 0 mm | - | - | - |
| 1778129147 | 23.33° C | 93% | 1013.1 hPa | 0 mm | - | - | - |
| 1778125546 | 22.78° C | 92% | 1012.9 hPa | 0 mm | - | - | - |
| 1778124644 | 22.78° C | 91% | 1012.3 hPa | 0 mm | - | - | - |
| 1778114744 | 24.44° C | 88% | 1013 hPa | 0 mm | - | - | - |
| 1778111142 | 25.56° C | 86% | 1013.1 hPa | 0 mm | - | - | - |
| 1778105744 | 27.22° C | 80% | 1012.8 hPa | 0 mm | - | - | - |
| 1778099450 | 30° C | 69% | 1013.4 hPa | 0 mm | - | - | - |
| 1778095843 | 31.11° C | 66% | 1014.2 hPa | 0 mm | - | - | - |
| 1778094944 | 31.67° C | 65% | 1014.3 hPa | 0 mm | - | - | - |
| 1778089542 | 28.89° C | 70% | 1015.6 hPa | 0 mm | - | - | - |
| 1778080543 | 26.11° C | 78% | 1016.7 hPa | 0 mm | - | - | - |
| 1778079643 | 26.11° C | 80% | 1016.7 hPa | 0 mm | - | - | - |
| 1778076937 | 23.89° C | 89% | 1016.4 hPa | 0 mm | - | - | - |
| 1778074238 | 22.22° C | 96% | 1015.6 hPa | 0 mm | - | - | - |
* Rain latest hour (hover to see other rain measurements)
** Current wind speed in m/s (hover to see current wind gust speed)